Time;durP1;ratioP1;P1;durP2;ratioP2;P2;SDS_P1;SDS_P2;PMS_P1;PMS_P2;Temp;Humidity;BMP_temperature;BMP_pressure;BME280_temperature;BME280_humidity;BME280_pressure;Samples;Min_cycle;Max_cycle;Signal;HPM_P1;HPM_P2
2023/02/04 00:02:19;;;;;;;23.35;11.48;;;;;;;;;;5034563;28;20638;-39
2023/02/04 00:04:44;;;;;;;25.20;11.45;;;;;;;;;;5034569;28;20030;-39
2023/02/04 00:07:09;;;;;;;26.52;11.13;;;;;;;;;;5049818;28;20124;-39
2023/02/04 00:09:35;;;;;;;27.52;11.07;;;;;;;;;;5034512;28;20097;-39
2023/02/04 00:12:00;;;;;;;20.52;11.15;;;;;;;;;;5034372;28;20460;-39
2023/02/04 00:14:26;;;;;;;19.35;10.27;;;;;;;;;;5034346;28;20099;-39
2023/02/04 00:16:51;;;;;;;28.80;12.98;;;;;;;;;;5033049;28;20041;-38
2023/02/04 00:19:16;;;;;;;39.42;12.50;;;;;;;;;;5034110;28;20060;-39
2023/02/04 00:21:42;;;;;;;24.98;10.73;;;;;;;;;;5034622;28;20026;-38
2023/02/04 00:24:08;;;;;;;27.52;10.15;;;;;;;;;;5034332;28;20060;-38
2023/02/04 00:26:34;;;;;;;20.20;10.55;;;;;;;;;;5034254;28;20112;-39
2023/02/04 00:28:59;;;;;;;25.50;11.75;;;;;;;;;;5034496;28;20176;-39
2023/02/04 00:31:24;;;;;;;16.27;9.30;;;;;;;;;;5034332;28;20510;-39
2023/02/04 00:33:50;;;;;;;18.08;10.93;;;;;;;;;;5034054;28;20099;-40
2023/02/04 00:36:15;;;;;;;21.13;10.00;;;;;;;;;;5033992;28;20029;-41
2023/02/04 00:38:40;;;;;;;19.15;11.05;;;;;;;;;;5032690;28;20479;-39
2023/02/04 00:41:06;;;;;;;15.98;8.07;;;;;;;;;;5032422;28;20037;-39
2023/02/04 00:43:31;;;;;;;21.05;10.93;;;;;;;;;;5032243;28;20022;-39
2023/02/04 00:45:56;;;;;;;22.08;10.18;;;;;;;;;;5049113;28;20030;-39
2023/02/04 00:48:22;;;;;;;20.17;10.93;;;;;;;;;;5033776;28;20398;-39
2023/02/04 00:50:47;;;;;;;21.05;10.15;;;;;;;;;;5032582;28;20032;-39
2023/02/04 00:53:13;;;;;;;20.58;9.93;;;;;;;;;;5032457;28;20032;-38
2023/02/04 00:55:38;;;;;;;20.55;9.73;;;;;;;;;;5048839;28;20063;-39
2023/02/04 00:58:03;;;;;;;22.05;10.05;;;;;;;;;;5032618;28;20033;-39
2023/02/04 01:00:29;;;;;;;20.70;10.25;;;;;;;;;;5032246;28;20120;-39
2023/02/04 01:02:54;;;;;;;14.68;10.50;;;;;;;;;;5033550;28;20029;-39
2023/02/04 01:05:20;;;;;;;27.35;11.27;;;;;;;;;;5033434;28;20108;-39
2023/02/04 01:07:45;;;;;;;22.15;10.98;;;;;;;;;;5048754;28;20036;-39
2023/02/04 01:10:11;;;;;;;40.83;11.88;;;;;;;;;;5048623;28;20063;-39
2023/02/04 01:12:36;;;;;;;19.70;10.32;;;;;;;;;;5033348;28;20029;-39
2023/02/04 01:15:02;;;;;;;23.98;10.95;;;;;;;;;;5033243;28;20468;-39
2023/02/04 01:17:29;;;;;;;15.95;8.93;;;;;;;;;;5031705;28;20030;-39
2023/02/04 01:19:55;;;;;;;23.25;9.63;;;;;;;;;;5033331;28;20040;-39
2023/02/04 01:22:20;;;;;;;22.58;11.10;;;;;;;;;;5031852;28;20069;-38
2023/02/04 01:24:46;;;;;;;21.90;10.68;;;;;;;;;;5048405;28;20029;-39
2023/02/04 01:27:29;;;;;;;17.73;9.50;;;;;;;;;;5033240;28;20029;-39
2023/02/04 01:29:55;;;;;;;24.50;12.38;;;;;;;;;;5031691;28;20391;-39
2023/02/04 01:32:20;;;;;;;26.98;11.52;;;;;;;;;;5032933;28;20040;-39
2023/02/04 01:34:45;;;;;;;19.10;9.75;;;;;;;;;;5033018;28;20026;-38
2023/02/04 01:37:11;;;;;;;25.95;10.95;;;;;;;;;;5064667;28;20024;-39
2023/02/04 01:39:36;;;;;;;26.48;11.02;;;;;;;;;;5048102;28;20057;-39
2023/02/04 01:42:02;;;;;;;23.10;10.63;;;;;;;;;;5032825;28;20519;-38
2023/02/04 01:44:28;;;;;;;24.73;11.73;;;;;;;;;;5032644;28;20033;-39
2023/02/04 01:46:53;;;;;;;23.88;9.77;;;;;;;;;;5032928;28;20025;-39
2023/02/04 01:49:19;;;;;;;23.55;10.15;;;;;;;;;;5032678;28;20409;-38
2023/02/04 01:51:44;;;;;;;22.25;10.00;;;;;;;;;;5047916;28;20039;-39
2023/02/04 01:54:11;;;;;;;23.65;10.57;;;;;;;;;;5031884;28;20543;-38
2023/02/04 01:56:36;;;;;;;17.98;8.80;;;;;;;;;;5032670;28;20430;-40
2023/02/04 01:59:09;;;;;;;20.85;9.07;;;;;;;;;;5064281;28;20053;-39
2023/02/04 02:01:40;;;;;;;18.55;8.70;;;;;;;;;;5032663;28;20033;-39
2023/02/04 02:04:06;;;;;;;19.38;10.77;;;;;;;;;;5032363;28;20040;-39
2023/02/04 02:06:32;;;;;;;19.80;9.57;;;;;;;;;;5030936;28;20013;-39
2023/02/04 02:08:57;;;;;;;22.98;11.30;;;;;;;;;;5032327;28;20033;-39
2023/02/04 02:11:23;;;;;;;19.13;9.98;;;;;;;;;;5030903;28;20028;-39
2023/02/04 02:13:49;;;;;;;22.98;9.73;;;;;;;;;;5032137;28;20044;-38
2023/02/04 02:16:14;;;;;;;25.38;9.40;;;;;;;;;;5032080;28;20017;-38
2023/02/04 02:18:40;;;;;;;19.52;9.40;;;;;;;;;;5063814;28;20061;-39
2023/02/04 02:21:07;;;;;;;25.20;11.73;;;;;;;;;;5032131;28;20056;-39
2023/02/04 02:23:52;;;;;;;17.90;8.95;;;;;;;;;;5047212;28;20119;-39
2023/02/04 02:26:19;;;;;;;18.17;8.25;;;;;;;;;;5047193;28;20033;-39
2023/02/04 02:28:46;;;;;;;20.63;8.57;;;;;;;;;;5032254;28;20049;-38
2023/02/04 02:31:12;;;;;;;25.67;9.75;;;;;;;;;;5063904;28;20075;-39
2023/02/04 02:33:38;;;;;;;18.20;10.63;;;;;;;;;;5032040;28;20025;-38
2023/02/04 02:36:03;;;;;;;29.17;11.25;;;;;;;;;;5031817;28;20454;-39
2023/02/04 02:38:29;;;;;;;20.10;11.73;;;;;;;;;;5046996;28;20042;-39
2023/02/04 02:40:54;;;;;;;16.88;10.32;;;;;;;;;;5031614;28;20116;-39
2023/02/04 02:43:22;;;;;;;26.40;10.48;;;;;;;;;;5046972;28;20110;-39
2023/02/04 02:45:48;;;;;;;19.85;10.52;;;;;;;;;;5031674;28;20025;-39
2023/02/04 02:48:13;;;;;;;18.98;8.15;;;;;;;;;;5031639;28;20376;-46
2023/02/04 02:50:40;;;;;;;18.75;9.30;;;;;;;;;;5063531;28;20112;-39
2023/02/04 02:53:12;;;;;;;27.25;11.88;;;;;;;;;;5031674;28;20367;-39
2023/02/04 02:55:40;;;;;;;28.98;10.13;;;;;;;;;;5046663;28;20040;-39
2023/02/04 02:58:13;;;;;;;26.70;10.40;;;;;;;;;;5030233;28;20052;-39
2023/02/04 03:00:38;;;;;;;20.65;9.57;;;;;;;;;;5031477;28;20033;-39
2023/02/04 03:03:10;;;;;;;20.98;8.55;;;;;;;;;;5030142;28;20028;-38
2023/02/04 03:05:39;;;;;;;20.40;9.90;;;;;;;;;;5029713;28;20492;-39
2023/02/04 03:08:08;;;;;;;18.98;10.00;;;;;;;;;;5031446;28;20032;-38
2023/02/04 03:10:34;;;;;;;22.48;10.02;;;;;;;;;;5031184;28;20405;-39
2023/02/04 03:12:59;;;;;;;24.10;9.23;;;;;;;;;;5031379;28;20029;-39
2023/02/04 03:15:25;;;;;;;23.95;9.27;;;;;;;;;;5031240;28;20112;-40
2023/02/04 03:17:55;;;;;;;21.05;10.07;;;;;;;;;;5031056;28;20458;-38
2023/02/04 03:20:21;;;;;;;24.75;9.95;;;;;;;;;;5031256;28;20046;-39
2023/02/04 03:22:47;;;;;;;23.80;10.00;;;;;;;;;;5031295;28;20388;-38
2023/02/04 03:25:12;;;;;;;20.20;9.63;;;;;;;;;;5029915;28;20030;-38
2023/02/04 03:27:37;;;;;;;25.27;9.27;;;;;;;;;;5029862;28;20024;-39
2023/02/04 03:30:03;;;;;;;21.50;8.38;;;;;;;;;;5031218;28;20056;-39
2023/02/04 03:32:28;;;;;;;16.70;8.55;;;;;;;;;;5031163;28;20315;-39
2023/02/04 03:34:54;;;;;;;25.25;10.18;;;;;;;;;;5031478;28;20022;-40
2023/02/04 03:37:19;;;;;;;24.23;12.45;;;;;;;;;;5031199;28;20029;-39
2023/02/04 03:39:44;;;;;;;18.42;10.05;;;;;;;;;;5031353;28;20064;-39
2023/02/04 03:42:10;;;;;;;18.08;8.18;;;;;;;;;;5031161;28;20025;-39
2023/02/04 03:44:35;;;;;;;14.88;8.45;;;;;;;;;;5030984;28;20443;-38
2023/02/04 03:47:00;;;;;;;16.15;8.25;;;;;;;;;;5030993;28;20656;-39
2023/02/04 03:49:27;;;;;;;13.50;8.43;;;;;;;;;;5030992;28;20041;-39
2023/02/04 03:51:52;;;;;;;22.30;10.23;;;;;;;;;;5031225;28;20040;-39
2023/02/04 03:54:17;;;;;;;14.85;8.77;;;;;;;;;;5030881;28;20037;-39
2023/02/04 03:56:43;;;;;;;14.98;8.93;;;;;;;;;;5031223;28;20029;-39
2023/02/04 03:59:08;;;;;;;19.67;8.93;;;;;;;;;;5031072;28;20379;-38
2023/02/04 04:01:33;;;;;;;19.10;8.43;;;;;;;;;;5030868;28;20024;-39
2023/02/04 04:03:59;;;;;;;21.60;10.02;;;;;;;;;;5030921;28;20546;-39
2023/02/04 04:06:24;;;;;;;21.52;10.75;;;;;;;;;;5030698;28;20061;-39
2023/02/04 04:08:49;;;;;;;15.80;8.45;;;;;;;;;;5031185;28;20083;-39
2023/02/04 04:11:15;;;;;;;16.83;10.07;;;;;;;;;;5030832;28;20108;-39
2023/02/04 04:13:40;;;;;;;22.50;9.98;;;;;;;;;;5030937;28;20041;-38
2023/02/04 04:16:07;;;;;;;21.15;8.65;;;;;;;;;;5030784;28;20449;-38
2023/02/04 04:18:33;;;;;;;12.88;6.53;;;;;;;;;;5033799;28;20373;-39
2023/02/04 04:20:58;;;;;;;22.08;9.52;;;;;;;;;;5034326;28;20037;-39
2023/02/04 04:23:24;;;;;;;23.50;11.10;;;;;;;;;;5034480;28;20040;-38
2023/02/04 04:25:49;;;;;;;22.52;8.93;;;;;;;;;;5034527;28;20536;-39
2023/02/04 04:28:15;;;;;;;12.52;6.97;;;;;;;;;;5034423;28;20033;-39
2023/02/04 04:30:40;;;;;;;14.05;6.72;;;;;;;;;;5034385;28;20033;-38
2023/02/04 04:33:05;;;;;;;17.23;10.65;;;;;;;;;;5034207;28;20602;-39
2023/02/04 04:35:31;;;;;;;18.90;8.52;;;;;;;;;;5033952;28;20021;-39
2023/02/04 04:37:56;;;;;;;15.90;8.32;;;;;;;;;;5034259;28;20404;-39
2023/02/04 04:40:21;;;;;;;22.15;10.80;;;;;;;;;;5034261;28;20480;-39
2023/02/04 04:42:47;;;;;;;20.27;9.52;;;;;;;;;;5033961;28;20068;-39
2023/02/04 04:45:13;;;;;;;21.42;10.18;;;;;;;;;;5033971;28;20021;-39
2023/02/04 04:47:38;;;;;;;15.55;8.05;;;;;;;;;;5033760;28;20551;-39
2023/02/04 04:50:04;;;;;;;27.33;11.18;;;;;;;;;;5033745;28;20160;-39
2023/02/04 04:52:29;;;;;;;20.95;8.98;;;;;;;;;;5033787;28;20123;-39
2023/02/04 04:54:55;;;;;;;24.83;10.77;;;;;;;;;;5033786;28;20028;-39
2023/02/04 04:57:20;;;;;;;21.02;10.02;;;;;;;;;;5033664;28;20038;-38
2023/02/04 04:59:45;;;;;;;17.52;9.82;;;;;;;;;;5033950;28;20025;-38
2023/02/04 05:02:11;;;;;;;16.17;7.82;;;;;;;;;;5033598;28;20437;-38
2023/02/04 05:04:36;;;;;;;23.52;10.73;;;;;;;;;;5065599;28;20443;-38
2023/02/04 05:07:02;;;;;;;26.20;10.65;;;;;;;;;;5033459;28;20030;-38
2023/02/04 05:09:27;;;;;;;25.10;10.20;;;;;;;;;;5033410;28;20036;-38
2023/02/04 05:11:53;;;;;;;26.52;9.23;;;;;;;;;;5033427;28;20044;-39
2023/02/04 05:14:18;;;;;;;22.80;10.25;;;;;;;;;;5033368;28;20032;-39
2023/02/04 05:16:43;;;;;;;21.50;8.80;;;;;;;;;;5033246;28;20064;-39
2023/02/04 05:19:09;;;;;;;18.67;9.60;;;;;;;;;;5033109;28;20099;-38
2023/02/04 05:21:34;;;;;;;16.67;8.00;;;;;;;;;;5033157;28;20033;-39
2023/02/04 05:23:59;;;;;;;18.02;8.63;;;;;;;;;;5033528;28;20041;-39
2023/02/04 05:26:26;;;;;;;22.02;10.05;;;;;;;;;;5032957;28;20036;-38
2023/02/04 05:28:51;;;;;;;25.10;9.98;;;;;;;;;;5033001;28;20029;-39
2023/02/04 05:31:16;;;;;;;16.33;8.75;;;;;;;;;;5033260;28;20033;-39
2023/02/04 05:33:42;;;;;;;24.40;9.25;;;;;;;;;;5032940;28;20082;-39
2023/02/04 05:36:07;;;;;;;26.52;10.60;;;;;;;;;;5032938;28;20095;-39
2023/02/04 05:38:32;;;;;;;24.27;8.52;;;;;;;;;;5048068;28;20033;-39
2023/02/04 05:40:58;;;;;;;20.15;9.00;;;;;;;;;;5032840;28;20491;-38
2023/02/04 05:43:23;;;;;;;18.25;9.10;;;;;;;;;;5032773;28;20021;-38
2023/02/04 05:45:49;;;;;;;25.17;10.38;;;;;;;;;;5032686;28;20052;-38
2023/02/04 05:48:14;;;;;;;13.40;7.10;;;;;;;;;;5033051;28;20036;-40
2023/02/04 05:50:39;;;;;;;19.52;8.48;;;;;;;;;;5032667;28;20396;-39
2023/02/04 05:53:07;;;;;;;14.82;7.70;;;;;;;;;;5033126;28;20377;-38
2023/02/04 05:55:33;;;;;;;18.52;9.07;;;;;;;;;;5032794;28;20033;-38
2023/02/04 05:57:58;;;;;;;14.98;7.82;;;;;;;;;;5032482;28;20467;-38
2023/02/04 06:00:23;;;;;;;16.45;8.35;;;;;;;;;;5032345;28;20029;-38
2023/02/04 06:02:49;;;;;;;19.20;8.85;;;;;;;;;;5032438;28;20040;-39
2023/02/04 06:05:14;;;;;;;21.63;8.70;;;;;;;;;;5047606;28;20045;-38
2023/02/04 06:07:40;;;;;;;21.00;9.13;;;;;;;;;;5032527;28;20037;-39
2023/02/04 06:10:05;;;;;;;16.08;7.28;;;;;;;;;;5032534;28;20360;-38
2023/02/04 06:12:31;;;;;;;20.02;8.27;;;;;;;;;;5032088;28;20434;-38
2023/02/04 06:14:56;;;;;;;17.00;8.02;;;;;;;;;;5032155;28;20068;-39
2023/02/04 06:17:21;;;;;;;18.52;7.93;;;;;;;;;;5031904;28;20061;-39
2023/02/04 06:19:47;;;;;;;14.95;7.35;;;;;;;;;;5030900;28;20064;-39
2023/02/04 06:22:12;;;;;;;15.48;8.38;;;;;;;;;;5032057;28;20041;-38
2023/02/04 06:24:38;;;;;;;18.58;8.13;;;;;;;;;;5032297;28;20033;-40
2023/02/04 06:27:03;;;;;;;21.60;8.15;;;;;;;;;;5032013;28;20025;-39
2023/02/04 06:29:28;;;;;;;15.93;7.15;;;;;;;;;;5032193;28;20026;-41
2023/02/04 06:31:54;;;;;;;19.95;7.97;;;;;;;;;;5031929;28;20051;-38
2023/02/04 06:34:19;;;;;;;15.85;7.32;;;;;;;;;;5032107;28;20033;-39
2023/02/04 06:36:45;;;;;;;15.00;6.97;;;;;;;;;;5032026;28;20036;-39
2023/02/04 06:39:10;;;;;;;16.23;8.27;;;;;;;;;;5031560;28;20068;-39
2023/02/04 06:41:36;;;;;;;9.52;5.38;;;;;;;;;;5031487;28;20014;-38
2023/02/04 06:44:01;;;;;;;28.85;12.07;;;;;;;;;;5031708;28;20032;-39
2023/02/04 06:46:27;;;;;;;18.88;8.13;;;;;;;;;;5031616;28;20399;-38
2023/02/04 06:48:52;;;;;;;14.32;7.25;;;;;;;;;;5031906;28;20025;-38
2023/02/04 06:51:17;;;;;;;11.13;5.10;;;;;;;;;;5031523;28;20052;-39
2023/02/04 06:53:44;;;;;;;12.52;6.85;;;;;;;;;;5031543;28;20037;-39
2023/02/04 06:56:10;;;;;;;6.47;4.60;;;;;;;;;;5031501;28;20056;-39
2023/02/04 06:58:35;;;;;;;15.30;7.10;;;;;;;;;;5031411;28;20072;-38
2023/02/04 07:01:01;;;;;;;19.25;7.75;;;;;;;;;;5031501;28;20379;-39
2023/02/04 07:03:26;;;;;;;13.57;7.05;;;;;;;;;;5046802;28;20041;-38
2023/02/04 07:05:52;;;;;;;11.45;6.00;;;;;;;;;;5031335;28;20017;-39
2023/02/04 07:08:18;;;;;;;10.82;7.13;;;;;;;;;;5031687;28;20032;-39
2023/02/04 07:10:43;;;;;;;10.27;5.03;;;;;;;;;;5031351;28;20025;-38
2023/02/04 07:13:09;;;;;;;9.77;5.75;;;;;;;;;;5031330;28;20037;-39
2023/02/04 07:15:34;;;;;;;17.13;6.85;;;;;;;;;;5031267;28;20104;-38
2023/02/04 07:18:00;;;;;;;9.60;5.38;;;;;;;;;;5031104;28;20079;-38
2023/02/04 07:20:25;;;;;;;5.30;3.83;;;;;;;;;;5031279;28;20103;-38
2023/02/04 07:22:51;;;;;;;6.35;5.18;;;;;;;;;;5031274;28;20026;-39
2023/02/04 07:25:16;;;;;;;10.00;6.32;;;;;;;;;;5031312;28;20538;-39
2023/02/04 07:27:42;;;;;;;9.88;4.18;;;;;;;;;;5031129;28;20360;-39
2023/02/04 07:30:08;;;;;;;7.88;5.03;;;;;;;;;;5031330;28;20030;-38
2023/02/04 07:32:34;;;;;;;9.70;4.70;;;;;;;;;;5031369;28;20033;-39
2023/02/04 07:34:59;;;;;;;5.63;3.25;;;;;;;;;;5031141;28;20071;-39
2023/02/04 07:37:25;;;;;;;6.00;3.90;;;;;;;;;;5031316;28;20037;-38
2023/02/04 07:39:50;;;;;;;8.25;3.65;;;;;;;;;;5031171;28;20356;-39
2023/02/04 07:42:16;;;;;;;6.50;3.92;;;;;;;;;;5031142;28;20116;-39
2023/02/04 07:44:50;;;;;;;10.32;4.50;;;;;;;;;;5029849;28;20099;-39
2023/02/04 07:47:15;;;;;;;8.45;4.97;;;;;;;;;;5030956;28;20095;-39
2023/02/04 07:49:41;;;;;;;10.38;4.38;;;;;;;;;;5031034;28;20040;-39
2023/02/04 07:52:06;;;;;;;6.95;3.72;;;;;;;;;;5032447;28;20036;-39
2023/02/04 07:54:32;;;;;;;11.50;3.80;;;;;;;;;;5034783;28;20022;-39
2023/02/04 07:56:57;;;;;;;4.43;2.92;;;;;;;;;;5034793;28;20034;-38
2023/02/04 07:59:22;;;;;;;7.63;4.00;;;;;;;;;;5034638;28;20417;-38
2023/02/04 08:01:48;;;;;;;5.70;3.60;;;;;;;;;;5034648;28;20026;-39
2023/02/04 08:04:14;;;;;;;6.30;3.38;;;;;;;;;;5035008;28;20087;-38
2023/02/04 08:06:39;;;;;;;6.82;3.83;;;;;;;;;;5034549;28;20480;-39
2023/02/04 08:09:04;;;;;;;6.05;4.43;;;;;;;;;;5034512;28;20116;-38
2023/02/04 08:11:30;;;;;;;6.53;4.60;;;;;;;;;;5034485;28;20048;-38
2023/02/04 08:13:55;;;;;;;6.85;3.53;;;;;;;;;;5034428;28;20033;-39
2023/02/04 08:16:21;;;;;;;6.28;4.05;;;;;;;;;;5034301;28;20064;-38
2023/02/04 08:18:46;;;;;;;6.22;4.07;;;;;;;;;;5034248;28;20523;-39
2023/02/04 08:21:12;;;;;;;5.95;3.58;;;;;;;;;;5034671;28;20080;-40
2023/02/04 08:23:40;;;;;;;8.23;4.15;;;;;;;;;;5034141;28;20026;-39
2023/02/04 08:26:10;;;;;;;8.63;3.90;;;;;;;;;;5034253;28;20040;-39
2023/02/04 08:28:36;;;;;;;7.97;3.50;;;;;;;;;;5034485;28;20021;-39
2023/02/04 08:31:02;;;;;;;9.40;5.07;;;;;;;;;;5034426;28;20033;-39
2023/02/04 08:33:27;;;;;;;6.78;3.58;;;;;;;;;;5034141;28;20482;-38
2023/02/04 08:35:53;;;;;;;7.97;3.85;;;;;;;;;;5034128;28;20030;-38
2023/02/04 08:38:19;;;;;;;6.68;3.67;;;;;;;;;;5034019;28;20080;-38
2023/02/04 08:40:44;;;;;;;8.63;5.25;;;;;;;;;;5034262;28;20603;-39
2023/02/04 08:43:10;;;;;;;8.07;4.47;;;;;;;;;;5034048;28;20021;-39
2023/02/04 08:45:35;;;;;;;8.45;2.88;;;;;;;;;;5033696;28;20028;-39
2023/02/04 08:48:01;;;;;;;6.50;3.45;;;;;;;;;;5033861;28;20031;-39
2023/02/04 08:50:27;;;;;;;5.80;3.50;;;;;;;;;;5033743;28;20379;-39
2023/02/04 08:52:52;;;;;;;11.98;6.30;;;;;;;;;;5034008;28;20079;-39
2023/02/04 08:55:18;;;;;;;9.07;5.60;;;;;;;;;;5033966;28;20411;-39
2023/02/04 08:57:43;;;;;;;12.82;5.05;;;;;;;;;;5033804;28;20029;-39
2023/02/04 09:00:10;;;;;;;8.05;5.22;;;;;;;;;;5033628;28;20079;-39
2023/02/04 09:02:35;;;;;;;11.00;4.60;;;;;;;;;;5033316;28;20386;-38
2023/02/04 09:05:01;;;;;;;11.18;5.53;;;;;;;;;;5033473;28;20038;-39
2023/02/04 09:07:26;;;;;;;8.15;4.47;;;;;;;;;;5033412;28;20027;-39
2023/02/04 09:09:51;;;;;;;8.18;4.68;;;;;;;;;;5033827;28;20053;-38
2023/02/04 09:12:17;;;;;;;5.82;4.07;;;;;;;;;;5033662;28;20017;-39
2023/02/04 09:14:42;;;;;;;5.93;2.95;;;;;;;;;;5033639;28;20468;-39
2023/02/04 09:17:08;;;;;;;4.35;2.78;;;;;;;;;;5033312;28;20371;-39
2023/02/04 09:19:33;;;;;;;6.18;3.50;;;;;;;;;;5033051;28;20081;-39
2023/02/04 09:21:59;;;;;;;11.50;3.53;;;;;;;;;;5033357;28;20025;-39
2023/02/04 09:24:24;;;;;;;6.68;3.67;;;;;;;;;;5033410;28;20091;-39
2023/02/04 09:26:49;;;;;;;7.97;4.25;;;;;;;;;;5033163;28;20021;-39
2023/02/04 09:29:15;;;;;;;3.63;2.60;;;;;;;;;;5033102;28;20036;-39
2023/02/04 09:31:41;;;;;;;5.40;3.90;;;;;;;;;;5032998;28;20036;-40
2023/02/04 09:34:06;;;;;;;8.30;3.72;;;;;;;;;;5033232;28;20025;-39
2023/02/04 09:36:36;;;;;;;7.88;3.85;;;;;;;;;;5033145;28;20026;-39
2023/02/04 09:39:05;;;;;;;5.88;4.00;;;;;;;;;;5033073;28;20053;-38
2023/02/04 09:41:32;;;;;;;9.85;3.80;;;;;;;;;;5033064;28;20026;-38
2023/02/04 09:43:58;;;;;;;6.40;3.28;;;;;;;;;;5032826;28;20030;-39
2023/02/04 09:46:27;;;;;;;6.35;3.08;;;;;;;;;;5032952;28;20083;-38
2023/02/04 09:48:53;;;;;;;5.82;3.30;;;;;;;;;;5032721;28;20073;-39
2023/02/04 09:51:21;;;;;;;7.70;3.58;;;;;;;;;;5032990;28;20027;-39
2023/02/04 09:53:47;;;;;;;10.18;3.63;;;;;;;;;;5033073;28;20083;-39
2023/02/04 09:56:13;;;;;;;5.75;3.83;;;;;;;;;;5032782;28;20029;-38
2023/02/04 09:58:39;;;;;;;7.63;3.33;;;;;;;;;;5032490;28;20439;-38
2023/02/04 10:01:10;;;;;;;4.70;2.90;;;;;;;;;;5032520;28;20026;-39
2023/02/04 10:03:45;;;;;;;4.63;3.58;;;;;;;;;;5032337;28;20083;-39
2023/02/04 10:06:11;;;;;;;3.72;2.95;;;;;;;;;;5032411;28;20488;-38
2023/02/04 10:08:36;;;;;;;6.45;3.78;;;;;;;;;;5032408;28;20025;-39
2023/02/04 10:11:03;;;;;;;7.13;4.00;;;;;;;;;;5032589;28;20493;-39
2023/02/04 10:13:31;;;;;;;7.35;4.60;;;;;;;;;;5032169;28;20049;-40
2023/02/04 10:15:57;;;;;;;4.55;2.38;;;;;;;;;;5031306;28;20060;-39
2023/02/04 10:18:25;;;;;;;4.82;3.40;;;;;;;;;;5031763;28;20049;-39
2023/02/04 10:20:54;;;;;;;6.38;2.35;;;;;;;;;;5032227;28;20504;-39
2023/02/04 10:23:20;;;;;;;2.67;2.10;;;;;;;;;;5030806;28;20084;-39
2023/02/04 10:25:45;;;;;;;9.25;3.40;;;;;;;;;;5031932;28;20479;-39
2023/02/04 10:28:11;;;;;;;8.10;3.97;;;;;;;;;;5032051;28;20040;-39
2023/02/04 10:30:38;;;;;;;6.78;4.05;;;;;;;;;;5031879;28;20032;-39
2023/02/04 10:33:12;;;;;;;7.63;4.57;;;;;;;;;;5031921;28;20022;-39
2023/02/04 10:35:48;;;;;;;8.68;2.63;;;;;;;;;;5031700;28;20121;-39
2023/02/04 10:38:13;;;;;;;9.13;3.83;;;;;;;;;;5031792;28;20065;-38
2023/02/04 10:40:39;;;;;;;7.47;3.17;;;;;;;;;;5031775;28;20510;-39
2023/02/04 10:43:14;;;;;;;9.80;4.80;;;;;;;;;;5031633;28;20117;-39
2023/02/04 10:45:43;;;;;;;6.18;3.25;;;;;;;;;;5031608;28;20104;-39
2023/02/04 10:48:14;;;;;;;4.05;3.30;;;;;;;;;;5031768;28;20032;-39
2023/02/04 10:50:40;;;;;;;6.03;3.15;;;;;;;;;;5031571;28;20080;-40
2023/02/04 10:55:52;;;;;;;6.68;3.22;;;;;;;;;;5031572;28;20034;-39
2023/02/04 10:58:26;;;;;;;2.30;2.10;;;;;;;;;;5031569;28;20037;-40
2023/02/04 11:00:51;;;;;;;6.40;3.80;;;;;;;;;;5031466;28;20059;-39
2023/02/04 11:03:24;;;;;;;6.22;3.83;;;;;;;;;;5031492;28;20061;-39
2023/02/04 11:05:50;;;;;;;;;;;;;;;;;;5031906;28;20426;-38
2023/02/04 11:08:21;;;;;;;6.07;2.97;;;;;;;;;;5031740;28;19909;-39
2023/02/04 11:10:49;;;;;;;3.30;2.88;;;;;;;;;;5031397;28;20464;-39
2023/02/04 11:13:39;;;;;;;3.78;2.78;;;;;;;;;;5063374;28;20017;-39
2023/02/04 11:16:10;;;;;;;8.93;3.47;;;;;;;;;;5031353;28;20064;-39
2023/02/04 11:18:44;;;;;;;6.13;2.15;;;;;;;;;;5031091;28;20403;-39
2023/02/04 11:21:28;;;;;;;5.80;3.65;;;;;;;;;;5031251;28;20030;-39
2023/02/04 11:24:12;;;;;;;10.38;3.47;;;;;;;;;;5031382;28;20057;-40
2023/02/04 11:26:39;;;;;;;8.95;3.63;;;;;;;;;;5033319;28;20140;-39
2023/02/04 11:29:04;;;;;;;5.82;2.55;;;;;;;;;;5035372;28;20036;-39
2023/02/04 11:31:33;;;;;;;2.97;2.30;;;;;;;;;;5035549;28;20037;-39
2023/02/04 11:34:09;;;;;;;4.88;2.53;;;;;;;;;;5035332;28;20018;-38
2023/02/04 11:36:48;;;;;;;4.70;3.05;;;;;;;;;;5034980;28;20040;-39
2023/02/04 11:39:15;;;;;;;5.28;3.42;;;;;;;;;;5035172;28;20044;-39
2023/02/04 11:41:43;;;;;;;5.85;3.17;;;;;;;;;;5067086;28;20692;-39
2023/02/04 11:44:09;;;;;;;5.47;2.63;;;;;;;;;;5035063;28;20037;-39
2023/02/04 11:46:34;;;;;;;5.05;3.00;;;;;;;;;;5034905;28;20017;-39
2023/02/04 11:49:00;;;;;;;7.22;3.10;;;;;;;;;;5034044;28;20404;-39
2023/02/04 11:51:30;;;;;;;4.63;2.95;;;;;;;;;;5034922;28;20104;-39
2023/02/04 11:53:55;;;;;;;4.82;3.05;;;;;;;;;;5034907;28;20037;-39
2023/02/04 11:56:22;;;;;;;4.20;2.53;;;;;;;;;;5034812;28;20022;-39
2023/02/04 11:58:48;;;;;;;2.85;2.60;;;;;;;;;;5034763;28;20037;-39
2023/02/04 12:01:20;;;;;;;6.63;3.17;;;;;;;;;;5034740;28;20533;-39
2023/02/04 12:03:47;;;;;;;6.93;2.63;;;;;;;;;;5034966;28;20041;-39
2023/02/04 12:06:20;;;;;;;3.70;2.00;;;;;;;;;;5034668;28;20017;-39
2023/02/04 12:08:45;;;;;;;5.53;1.80;;;;;;;;;;5034626;28;20061;-39
2023/02/04 12:11:25;;;;;;;5.32;2.33;;;;;;;;;;5034522;28;20049;-39
2023/02/04 12:13:55;;;;;;;3.58;2.20;;;;;;;;;;5034661;28;20037;-39
2023/02/04 12:16:21;;;;;;;6.50;2.95;;;;;;;;;;5034767;28;20021;-39
2023/02/04 12:18:46;;;;;;;3.25;2.30;;;;;;;;;;5034262;28;20553;-39
2023/02/04 12:21:13;;;;;;;3.97;2.33;;;;;;;;;;5034689;28;20129;-39
2023/02/04 12:23:39;;;;;;;2.38;2.00;;;;;;;;;;5034384;28;20034;-39
2023/02/04 12:26:05;;;;;;;4.35;2.83;;;;;;;;;;5033030;28;20107;-39
2023/02/04 12:28:31;;;;;;;5.00;2.20;;;;;;;;;;5034242;28;20037;-39
2023/02/04 12:30:56;;;;;;;3.30;1.92;;;;;;;;;;5034541;28;20383;-39
2023/02/04 12:33:21;;;;;;;3.83;1.73;;;;;;;;;;5034051;28;20075;-39
2023/02/04 12:35:47;;;;;;;3.13;1.85;;;;;;;;;;5034339;28;20021;-39
2023/02/04 12:38:13;;;;;;;2.78;1.83;;;;;;;;;;5033134;28;20041;-39
2023/02/04 12:40:38;;;;;;;2.05;1.52;;;;;;;;;;5033918;28;20024;-39
2023/02/04 12:43:04;;;;;;;5.93;2.33;;;;;;;;;;5034021;28;20030;-39
2023/02/04 12:45:30;;;;;;;2.72;1.77;;;;;;;;;;5034130;28;20104;-39
2023/02/04 12:47:56;;;;;;;2.83;2.08;;;;;;;;;;5034172;28;20674;-39
2023/02/04 12:50:21;;;;;;;9.23;1.63;;;;;;;;;;5033884;28;20460;-39
2023/02/04 12:52:48;;;;;;;2.08;1.88;;;;;;;;;;5032465;28;20112;-39
2023/02/04 12:55:13;;;;;;;2.08;1.80;;;;;;;;;;5034020;28;20105;-39
2023/02/04 12:57:40;;;;;;;4.50;1.60;;;;;;;;;;5033619;28;20605;-39
2023/02/04 13:00:07;;;;;;;4.80;2.72;;;;;;;;;;5065688;28;20029;-39
2023/02/04 13:02:32;;;;;;;7.15;2.55;;;;;;;;;;5065389;28;20033;-39
2023/02/04 13:04:58;;;;;;;5.85;2.03;;;;;;;;;;5033636;28;20044;-40
2023/02/04 13:07:24;;;;;;;4.35;1.75;;;;;;;;;;5033522;28;20033;-39
2023/02/04 13:09:51;;;;;;;3.58;2.17;;;;;;;;;;5033893;28;20026;-43
2023/02/04 13:12:16;;;;;;;2.58;1.88;;;;;;;;;;5033762;28;20108;-39
2023/02/04 13:14:42;;;;;;;3.03;2.03;;;;;;;;;;5033543;28;20539;-39
2023/02/04 13:17:08;;;;;;;5.75;2.63;;;;;;;;;;5033324;28;20021;-39
2023/02/04 13:19:33;;;;;;;3.60;1.60;;;;;;;;;;5032995;28;20052;-39
2023/02/04 13:21:59;;;;;;;2.97;1.70;;;;;;;;;;5033512;28;20036;-39
2023/02/04 13:24:25;;;;;;;5.72;1.58;;;;;;;;;;5033266;28;20486;-39
2023/02/04 13:26:50;;;;;;;3.25;1.60;;;;;;;;;;5033289;28;20036;-39
2023/02/04 13:29:16;;;;;;;2.53;1.88;;;;;;;;;;5033065;28;20025;-39
2023/02/04 13:31:42;;;;;;;2.10;1.90;;;;;;;;;;5033065;28;20025;-39
2023/02/04 13:34:08;;;;;;;2.30;1.60;;;;;;;;;;5033118;28;20244;-39
2023/02/04 13:36:33;;;;;;;1.63;1.02;;;;;;;;;;5033075;28;20467;-39
2023/02/04 13:38:59;;;;;;;0.82;0.80;;;;;;;;;;5032962;28;20037;-39
2023/02/04 13:41:25;;;;;;;2.22;1.42;;;;;;;;;;5032922;28;20057;-39
2023/02/04 13:43:51;;;;;;;0.57;0.57;;;;;;;;;;5032811;28;20494;-39
2023/02/04 13:46:16;;;;;;;0.95;0.70;;;;;;;;;;5033098;28;20349;-39
2023/02/04 13:48:42;;;;;;;0.70;0.70;;;;;;;;;;5032673;28;20053;-39
2023/02/04 13:51:07;;;;;;;2.70;0.57;;;;;;;;;;5032959;28;20052;-39
2023/02/04 13:53:33;;;;;;;0.65;0.63;;;;;;;;;;5032622;28;20032;-39
2023/02/04 13:55:58;;;;;;;1.60;0.30;;;;;;;;;;5032608;28;20124;-39
2023/02/04 13:58:24;;;;;;;0.30;0.22;;;;;;;;;;5032540;28;20029;-39
2023/02/04 14:00:49;;;;;;;0.20;0.20;;;;;;;;;;5032526;28;20051;-39
2023/02/04 14:03:15;;;;;;;0.50;0.40;;;;;;;;;;5032544;28;20176;-39
2023/02/04 14:05:40;;;;;;;0.52;0.40;;;;;;;;;;5032576;28;20037;-39
2023/02/04 14:08:06;;;;;;;1.75;0.65;;;;;;;;;;5032447;28;20100;-39
2023/02/04 14:10:31;;;;;;;0.50;0.50;;;;;;;;;;5032295;28;20120;-39
2023/02/04 14:12:57;;;;;;;0.38;0.38;;;;;;;;;;5032287;28;20096;-39
2023/02/04 14:15:23;;;;;;;0.25;0.20;;;;;;;;;;5032303;28;20053;-39
2023/02/04 14:17:48;;;;;;;0.22;0.22;;;;;;;;;;5032175;28;20089;-39
2023/02/04 14:20:14;;;;;;;0.43;0.30;;;;;;;;;;5031303;28;20468;-39
2023/02/04 14:22:40;;;;;;;0.70;0.60;;;;;;;;;;5032109;28;20105;-39
2023/02/04 14:25:05;;;;;;;0.47;0.32;;;;;;;;;;5032352;28;20037;-39
2023/02/04 14:27:31;;;;;;;0.50;0.20;;;;;;;;;;5032265;28;20611;-40
2023/02/04 14:29:57;;;;;;;0.40;0.40;;;;;;;;;;5031992;28;20033;-39
2023/02/04 14:32:22;;;;;;;0.50;0.50;;;;;;;;;;5031983;28;20017;-39